createdAt,value
2023-08-23T01:43:31.925Z,5.60
2023-08-23T01:49:06.688Z,5.10
2023-08-23T01:54:59.153Z,4.40
2023-08-23T02:00:21.224Z,4.70
2023-08-23T02:05:45.911Z,4.70
2023-08-23T02:12:00.391Z,5.40
2023-08-23T02:18:25.316Z,5.30
2023-08-23T02:24:53.141Z,5.90
2023-08-23T02:31:16.785Z,6.10
2023-08-23T03:35:03.574Z,7.50
2023-08-23T04:37:50.393Z,5.90
2023-08-23T04:50:56.511Z,6.80
2023-08-23T04:57:21.743Z,8.20
2023-08-23T05:10:10.183Z,6.50
2023-08-23T05:16:35.749Z,7.20
2023-08-23T05:41:39.942Z,5.80
2023-08-23T06:13:31.894Z,6.20
2023-08-23T06:38:56.430Z,5.40
2023-08-23T06:45:20.573Z,5.40
2023-08-23T06:51:44.063Z,4.40
2023-08-23T06:58:07.823Z,3.90
2023-08-23T07:04:23.672Z,3.90
2023-08-23T07:10:29.040Z,3.40
2023-08-23T07:16:54.316Z,3.50
2023-08-23T07:22:48.764Z,3.00
2023-08-23T07:29:12.349Z,3.00
2023-08-23T07:35:10.948Z,2.90
2023-08-23T07:41:41.523Z,2.30
2023-08-23T07:48:05.538Z,1.90
2023-08-23T07:54:31.121Z,1.80
2023-08-23T08:00:54.589Z,1.90
2023-08-23T08:07:08.343Z,1.80
2023-08-23T08:13:32.942Z,1.80
2023-08-23T08:19:59.006Z,2.10
2023-08-23T08:26:13.099Z,1.70
2023-08-23T08:32:32.125Z,1.80
2023-08-23T08:38:50.244Z,2.00
2023-08-23T08:45:05.818Z,1.80
2023-08-23T08:51:24.017Z,1.90
2023-08-23T08:57:28.484Z,1.60
2023-08-23T09:03:32.365Z,2.30
2023-08-23T09:09:57.082Z,1.60
2023-08-23T09:16:04.191Z,1.30
2023-08-23T09:22:27.692Z,2.30
2023-08-23T09:28:42.184Z,2.40
2023-08-23T09:47:45.526Z,2.00
2023-08-23T09:54:36.689Z,1.90
2023-08-23T10:01:06.125Z,2.20
2023-08-23T10:07:10.195Z,1.60
2023-08-23T10:13:12.179Z,1.90
2023-08-23T10:19:15.564Z,2.00
2023-08-23T10:25:33.273Z,1.80
2023-08-23T10:31:56.534Z,1.90
2023-08-23T10:56:51.893Z,2.00
2023-08-23T11:09:20.601Z,1.90
2023-08-23T11:15:18.795Z,1.70
2023-08-23T11:21:24.729Z,2.30
2023-08-23T11:33:55.000Z,1.70
2023-08-23T11:40:04.284Z,1.60
2023-08-23T11:46:27.724Z,2.10
2023-08-23T11:52:48.449Z,1.80
2023-08-23T11:58:51.709Z,2.20
2023-08-23T12:04:59.943Z,2.20
2023-08-23T12:11:28.906Z,1.90
2023-08-23T12:17:30.526Z,2.20
2023-08-23T12:23:35.984Z,2.00
2023-08-23T12:29:10.363Z,1.80
2023-08-23T12:35:09.482Z,1.90
2023-08-23T12:40:42.718Z,1.80
2023-08-23T12:45:50.080Z,2.00
2023-08-23T12:51:40.971Z,2.10
2023-08-23T12:56:53.503Z,1.80
2023-08-23T13:02:52.334Z,2.50
2023-08-23T13:08:46.779Z,1.90
2023-08-23T13:14:54.788Z,1.50
2023-08-23T13:21:03.422Z,1.70
2023-08-23T13:26:36.987Z,1.60
2023-08-23T13:32:45.621Z,1.60
2023-08-23T13:38:50.601Z,1.70
2023-08-23T13:44:21.076Z,2.30
2023-08-23T13:50:06.862Z,1.70
2023-08-23T13:55:48.437Z,1.40
2023-08-23T14:01:16.355Z,1.50
2023-08-23T14:06:32.429Z,1.80
2023-08-23T14:12:34.602Z,1.60
2023-08-23T14:18:49.090Z,1.60
2023-08-23T14:24:16.422Z,1.70
2023-08-23T14:29:46.900Z,1.90
2023-08-23T14:35:24.205Z,1.60
2023-08-23T14:41:47.854Z,1.60
2023-08-23T14:47:30.400Z,1.60
2023-08-23T14:53:07.248Z,1.60
2023-08-23T14:59:12.573Z,1.50
2023-08-23T15:05:27.553Z,1.80
2023-08-23T15:11:12.952Z,1.40
2023-08-23T15:16:53.142Z,1.50
2023-08-23T15:22:57.993Z,1.70
2023-08-23T15:29:02.756Z,1.60
2023-08-23T15:35:05.565Z,1.50
2023-08-23T15:41:11.188Z,1.50
2023-08-23T15:47:09.746Z,1.80
2023-08-23T15:53:14.691Z,1.50
2023-08-23T15:59:23.679Z,1.50
2023-08-23T16:05:18.619Z,1.80
2023-08-23T16:10:58.779Z,1.60
2023-08-23T16:22:22.273Z,1.50
2023-08-23T16:28:08.565Z,1.50
2023-08-23T16:40:20.499Z,1.70
2023-08-23T16:46:46.321Z,1.50
2023-08-23T16:52:53.317Z,1.50
2023-08-23T16:59:04.053Z,1.50
2023-08-23T17:05:08.956Z,1.60
2023-08-23T17:11:06.970Z,1.80
2023-08-23T17:17:12.092Z,1.70
2023-08-23T17:22:59.877Z,1.80
2023-08-23T17:28:57.936Z,1.90
2023-08-23T17:34:44.514Z,1.80
2023-08-23T17:41:09.762Z,1.90
2023-08-23T17:47:21.562Z,2.10
2023-08-23T17:52:53.297Z,1.90
2023-08-23T17:59:09.404Z,1.60
2023-08-23T18:04:44.221Z,1.70
2023-08-23T18:10:19.276Z,2.70
2023-08-23T18:16:45.684Z,2.20
2023-08-23T18:23:11.102Z,2.90
2023-08-23T18:29:36.440Z,3.40
2023-08-23T18:36:00.525Z,3.60
2023-08-23T18:42:27.264Z,3.80
2023-08-23T18:48:53.145Z,4.10
2023-08-23T18:55:10.840Z,3.70
2023-08-23T19:07:05.160Z,3.20
2023-08-23T19:12:58.024Z,4.00
2023-08-23T19:19:25.116Z,4.00
2023-08-23T19:25:52.771Z,4.70
2023-08-23T19:31:40.184Z,4.60
2023-08-23T19:38:07.111Z,4.30
2023-08-23T19:44:26.501Z,4.90
2023-08-23T19:49:55.902Z,5.40
2023-08-23T19:56:01.431Z,5.10
2023-08-23T20:02:07.124Z,4.50
2023-08-23T20:15:05.955Z,5.10
2023-08-23T20:20:38.577Z,4.60
2023-08-23T20:25:45.120Z,4.10
2023-08-23T20:31:14.313Z,5.80
2023-08-23T20:50:12.771Z,5.20
2023-08-23T21:28:54.117Z,6.90
2023-08-23T21:35:21.811Z,11.30
2023-08-23T21:41:49.013Z,5.90
2023-08-23T21:48:15.416Z,6.60
2023-08-23T22:24:08.691Z,6.10
2023-08-23T22:29:22.968Z,5.80
2023-08-23T22:35:29.337Z,5.80
2023-08-23T22:41:38.117Z,4.50
2023-08-23T22:47:30.659Z,5.40
2023-08-23T22:53:16.308Z,5.10
2023-08-23T22:59:24.041Z,5.30
2023-08-23T23:05:11.762Z,5.30
2023-08-23T23:11:37.292Z,5.70
2023-08-23T23:17:08.062Z,5.60
2023-08-23T23:23:16.757Z,5.00
2023-08-23T23:29:22.544Z,4.80
2023-08-23T23:34:45.927Z,4.40
2023-08-23T23:46:48.309Z,4.80
2023-08-23T23:52:54.993Z,4.50
2023-08-23T23:59:19.666Z,4.90
